Time;durP1;ratioP1;P1;durP2;ratioP2;P2;SDS_P1;SDS_P2;PMS_P1;PMS_P2;Temp;Humidity;BMP_temperature;BMP_pressure;BME280_temperature;BME280_humidity;BME280_pressure;Samples;Min_cycle;Max_cycle;Signal;HPM_P1;HPM_P2
2024/03/04 00:02:14;;;;;;;23.17;15.80;;;8.40;99.90;;;;;;5043348;28;20491;-84
2024/03/04 00:04:41;;;;;;;22.40;15.93;;;8.40;99.90;;;;;;5047500;28;20481;-84
2024/03/04 00:07:09;;;;;;;19.67;13.60;;;8.50;99.90;;;;;;5051200;28;20449;-84
2024/03/04 00:09:37;;;;;;;19.90;14.67;;;8.50;99.90;;;;;;5050391;28;20475;-83
2024/03/04 00:12:06;;;;;;;20.00;14.00;;;8.50;99.90;;;;;;5050210;28;20447;-85
2024/03/04 00:14:32;;;;;;;19.90;15.10;;;8.50;99.90;;;;;;5045833;28;20479;-83
2024/03/04 00:17:00;;;;;;;22.27;15.27;;;8.50;99.90;;;;;;5049412;28;20458;-84
2024/03/04 00:19:27;;;;;;;17.80;13.93;;;8.50;99.90;;;;;;5041095;28;20471;-85
2024/03/04 00:21:56;;;;;;;19.67;13.87;;;8.50;99.90;;;;;;5048109;28;20498;-82
2024/03/04 00:24:23;;;;;;;21.50;13.00;;;8.40;99.90;;;;;;5048130;28;20475;-84
2024/03/04 00:26:52;;;;;;;19.73;12.47;;;8.50;99.90;;;;;;5044063;28;20460;-84
2024/03/04 00:29:19;;;;;;;16.80;11.93;;;8.50;99.90;;;;;;5050533;28;20451;-82
2024/03/04 00:31:45;;;;;;;22.30;13.97;;;8.50;99.90;;;;;;5042768;28;20455;-83
2024/03/04 00:34:12;;;;;;;18.50;14.77;;;8.50;99.90;;;;;;5048258;28;20474;-85
2024/03/04 00:36:39;;;;;;;18.53;14.13;;;8.50;99.90;;;;;;5042823;28;20482;-84
2024/03/04 00:39:09;;;;;;;18.17;14.03;;;8.50;99.90;;;;;;5043931;28;20449;-84
2024/03/04 00:41:36;;;;;;;20.33;15.07;;;8.40;99.90;;;;;;5050745;28;20459;-84
2024/03/04 00:44:04;;;;;;;20.93;15.57;;;8.40;99.90;;;;;;5037634;28;20548;-85
2024/03/04 00:46:31;;;;;;;20.80;15.37;;;8.40;99.90;;;;;;5042523;28;20455;-83
2024/03/04 00:48:58;;;;;;;22.83;17.60;;;8.40;99.90;;;;;;5044988;28;20465;-84
2024/03/04 00:51:25;;;;;;;21.20;17.57;;;8.30;99.90;;;;;;5045426;28;20458;-84
2024/03/04 00:53:52;;;;;;;28.87;19.93;;;8.30;99.90;;;;;;5042042;28;20474;-83
2024/03/04 00:56:19;;;;;;;26.67;19.37;;;8.40;99.90;;;;;;5048550;28;20470;-83
2024/03/04 00:58:46;;;;;;;27.10;20.43;;;8.30;99.90;;;;;;5043536;28;20999;-83
2024/03/04 01:01:14;;;;;;;25.50;20.10;;;8.30;99.90;;;;;;5043139;28;20530;-84
2024/03/04 01:03:43;;;;;;;28.27;21.40;;;8.30;99.90;;;;;;5044004;28;21020;-82
2024/03/04 01:06:10;;;;;;;28.00;21.13;;;8.30;99.90;;;;;;5047465;28;20455;-82
2024/03/04 01:08:36;;;;;;;27.43;21.50;;;8.30;99.90;;;;;;5050729;28;20541;-84
2024/03/04 01:11:03;;;;;;;33.00;24.00;;;8.30;99.90;;;;;;5045205;28;20455;-83
2024/03/04 01:13:32;;;;;;;28.73;22.63;;;8.40;99.90;;;;;;5044919;28;20473;-82
2024/03/04 01:15:59;;;;;;;29.37;22.23;;;8.50;99.90;;;;;;5046434;28;20459;-84
2024/03/04 01:18:29;;;;;;;31.13;23.00;;;8.50;99.90;;;;;;5046344;28;20462;-83
2024/03/04 01:20:56;;;;;;;27.30;21.80;;;8.60;99.90;;;;;;5042740;28;20947;-85
2024/03/04 01:23:23;;;;;;;27.63;21.23;;;8.70;99.90;;;;;;5042403;28;20891;-84
2024/03/04 01:25:50;;;;;;;29.77;22.23;;;8.90;99.90;;;;;;5053019;28;20559;-83
2024/03/04 01:28:17;;;;;;;25.97;21.90;;;9.00;99.90;;;;;;5054356;28;20476;-83
2024/03/04 01:30:44;;;;;;;34.07;23.70;;;9.10;99.90;;;;;;5046142;28;21006;-84
2024/03/04 01:33:11;;;;;;;30.30;23.87;;;9.10;99.90;;;;;;5050158;28;20440;-85
2024/03/04 01:35:40;;;;;;;31.97;22.50;;;9.30;99.90;;;;;;5068764;28;20474;-86
2024/03/04 01:38:07;;;;;;;31.30;23.10;;;9.20;99.90;;;;;;5069588;28;20461;-84
2024/03/04 01:40:33;;;;;;;32.17;24.90;;;9.30;99.90;;;;;;5061434;28;21051;-85
2024/03/04 01:43:03;;;;;;;38.60;26.50;;;9.30;99.90;;;;;;5062386;28;20850;-84
2024/03/04 01:45:31;;;;;;;33.63;25.10;;;9.30;99.90;;;;;;5063933;28;20532;-83
2024/03/04 01:48:01;;;;;;;39.97;25.80;;;9.30;99.90;;;;;;5063292;28;20479;-85
2024/03/04 01:50:30;;;;;;;35.20;26.50;;;9.30;99.90;;;;;;5063890;28;20993;-84
2024/03/04 01:53:02;;;;;;;43.43;29.17;;;9.30;99.90;;;;;;5062640;28;20499;-85
2024/03/04 01:55:34;;;;;;;33.67;25.50;;;9.30;99.90;;;;;;5063017;28;20441;-85
2024/03/04 01:58:03;;;;;;;39.13;29.20;;;9.40;99.90;;;;;;5063465;28;20462;-84
2024/03/04 02:00:33;;;;;;;36.60;25.97;;;9.40;99.90;;;;;;5062708;28;20479;-84
2024/03/04 02:03:00;;;;;;;35.80;27.93;;;9.50;99.90;;;;;;5062954;28;20606;-84
2024/03/04 02:05:27;;;;;;;34.30;26.77;;;9.50;99.90;;;;;;5062641;28;20516;-85
2024/03/04 02:07:53;;;;;;;40.33;28.67;;;9.60;99.90;;;;;;5062028;28;20908;-84
2024/03/04 02:10:22;;;;;;;41.43;27.80;;;9.60;99.90;;;;;;5062335;28;20466;-84
2024/03/04 02:12:49;;;;;;;43.07;30.83;;;9.50;99.90;;;;;;5061957;28;20453;-84
2024/03/04 02:15:16;;;;;;;42.67;30.10;;;9.60;99.90;;;;;;5061464;28;20472;-84
2024/03/04 02:17:46;;;;;;;46.37;32.67;;;9.60;99.90;;;;;;5061111;28;20534;-84
2024/03/04 02:20:16;;;;;;;49.30;31.70;;;9.50;99.90;;;;;;5061513;28;20463;-85
2024/03/04 02:22:45;;;;;;;43.77;31.67;;;9.60;99.90;;;;;;5061434;28;20491;-85
2024/03/04 02:25:12;;;;;;;45.13;30.37;;;9.50;99.90;;;;;;5060740;28;20989;-84
2024/03/04 02:27:39;;;;;;;55.97;31.10;;;9.60;99.90;;;;;;5060267;28;20461;-84
2024/03/04 02:30:08;;;;;;;44.73;32.47;;;9.60;99.90;;;;;;5061129;28;20546;-84
2024/03/04 02:32:38;;;;;;;52.47;34.97;;;9.70;99.90;;;;;;5061644;28;20457;-84
2024/03/04 02:35:07;;;;;;;47.17;31.30;;;9.60;99.90;;;;;;5060656;28;20879;-84
2024/03/04 02:37:35;;;;;;;43.67;29.83;;;9.60;99.90;;;;;;5059807;28;20459;-85
2024/03/04 02:40:06;;;;;;;48.77;31.37;;;9.60;99.90;;;;;;5060575;28;20990;-85
2024/03/04 02:42:33;;;;;;;45.67;32.37;;;9.60;99.90;;;;;;5060434;28;20485;-84
2024/03/04 02:45:00;;;;;;;47.60;31.43;;;9.60;99.90;;;;;;5078094;28;20456;-86
2024/03/04 02:47:26;;;;;;;47.50;31.23;;;9.50;99.90;;;;;;5078876;28;20447;-86
2024/03/04 02:49:52;;;;;;;50.27;32.27;;;9.40;99.90;;;;;;5079574;28;20460;-87
2024/03/04 02:52:19;;;;;;;56.87;33.43;;;9.40;99.90;;;;;;5079498;28;20503;-86
2024/03/04 02:54:46;;;;;;;52.80;36.03;;;9.40;99.90;;;;;;5078382;28;20624;-85
2024/03/04 02:57:14;;;;;;;52.03;32.80;;;9.40;99.90;;;;;;5078899;28;20519;-86
2024/03/04 02:59:42;;;;;;;50.67;32.30;;;9.50;99.90;;;;;;5078351;28;20449;-85
2024/03/04 03:02:09;;;;;;;53.43;31.77;;;9.40;99.90;;;;;;5079352;28;20442;-86
2024/03/04 03:04:36;;;;;;;52.33;32.27;;;9.40;99.90;;;;;;5078186;28;20511;-85
2024/03/04 03:07:03;;;;;;;56.07;33.60;;;9.40;99.90;;;;;;5077402;28;20504;-85
2024/03/04 03:09:29;;;;;;;59.40;33.03;;;9.30;99.90;;;;;;5078350;28;20466;-85
2024/03/04 03:11:56;;;;;;;52.57;32.27;;;9.40;99.90;;;;;;5070078;28;20513;-82
2024/03/04 03:14:25;;;;;;;49.63;31.70;;;9.50;99.90;;;;;;5053609;28;20562;-82
2024/03/04 03:16:52;;;;;;;50.30;32.50;;;9.40;99.90;;;;;;5053229;28;20456;-81
2024/03/04 03:19:25;;;;;;;54.30;33.60;;;9.50;99.90;;;;;;5062526;28;20685;-82
2024/03/04 03:21:52;;;;;;;53.20;31.60;;;9.50;99.90;;;;;;5054445;28;20461;-83
2024/03/04 03:24:19;;;;;;;52.03;32.30;;;9.50;99.90;;;;;;5064269;28;20503;-82
2024/03/04 03:26:46;;;;;;;54.70;34.00;;;9.50;99.90;;;;;;5064322;28;20462;-82
2024/03/04 03:29:13;;;;;;;50.43;33.10;;;9.50;99.90;;;;;;5055304;28;20452;-82
2024/03/04 03:31:41;;;;;;;51.77;32.00;;;9.40;99.90;;;;;;5062573;28;20467;-81
2024/03/04 03:34:08;;;;;;;51.33;34.03;;;9.40;99.90;;;;;;5053776;28;20500;-83
2024/03/04 03:36:38;;;;;;;48.30;30.90;;;9.40;99.90;;;;;;5062404;28;20553;-82
2024/03/04 03:39:07;;;;;;;54.50;32.47;;;9.50;99.90;;;;;;5059657;28;20464;-84
2024/03/04 03:41:34;;;;;;;55.10;33.70;;;9.40;99.90;;;;;;5053621;28;20468;-84
2024/03/04 03:44:01;;;;;;;51.50;32.03;;;9.40;99.90;;;;;;5053324;28;20499;-83
2024/03/04 03:46:28;;;;;;;56.63;33.50;;;9.50;99.90;;;;;;5052981;28;20527;-82
2024/03/04 03:48:56;;;;;;;50.73;31.47;;;9.50;99.90;;;;;;5045690;28;20538;-83
2024/03/04 03:51:23;;;;;;;62.20;34.43;;;9.40;99.90;;;;;;5045358;28;20462;-82
2024/03/04 03:53:50;;;;;;;54.70;31.93;;;9.50;99.90;;;;;;5053468;28;20479;-83
2024/03/04 03:56:18;;;;;;;43.13;29.27;;;9.60;99.90;;;;;;5052723;28;20459;-82
2024/03/04 03:58:50;;;;;;;54.87;32.23;;;9.60;99.90;;;;;;5053337;28;20464;-84
2024/03/04 04:01:16;;;;;;;52.37;31.67;;;9.50;99.90;;;;;;5052557;28;20467;-83
2024/03/04 04:03:43;;;;;;;52.33;30.17;;;9.40;99.90;;;;;;5059374;28;20496;-83
2024/03/04 04:06:12;;;;;;;53.07;30.57;;;9.40;99.90;;;;;;5063558;28;20490;-83
2024/03/04 04:08:41;;;;;;;46.27;29.30;;;9.40;99.90;;;;;;5067856;28;20452;-84
2024/03/04 04:11:07;;;;;;;48.00;30.20;;;9.40;99.90;;;;;;5070813;28;20470;-84
2024/03/04 04:13:34;;;;;;;55.80;28.50;;;9.40;99.90;;;;;;5063661;28;20469;-82
2024/03/04 04:16:01;;;;;;;43.70;28.10;;;9.40;99.90;;;;;;5052930;28;20455;-81
2024/03/04 04:18:28;;;;;;;47.97;29.23;;;9.50;99.90;;;;;;5052886;28;20470;-83
2024/03/04 04:20:54;;;;;;;46.00;29.70;;;9.50;99.90;;;;;;5052501;28;20549;-82
2024/03/04 04:23:25;;;;;;;59.67;32.80;;;9.50;99.90;;;;;;5045058;28;20495;-82
2024/03/04 04:25:52;;;;;;;49.60;30.83;;;9.50;99.90;;;;;;5041660;28;20452;-83
2024/03/04 04:28:21;;;;;;;53.90;32.97;;;9.50;99.90;;;;;;5047922;28;20455;-83
2024/03/04 04:30:48;;;;;;;48.47;30.50;;;9.50;99.90;;;;;;5044298;28;20458;-82
2024/03/04 04:33:16;;;;;;;53.47;33.43;;;9.50;99.90;;;;;;5048175;28;20444;-83
2024/03/04 04:35:43;;;;;;;46.97;29.40;;;9.40;99.90;;;;;;5052421;28;20867;-82
2024/03/04 04:38:09;;;;;;;52.60;28.80;;;9.30;99.90;;;;;;5046462;28;20449;-82
2024/03/04 04:40:38;;;;;;;52.50;30.37;;;9.50;99.90;;;;;;5048039;28;20575;-82
2024/03/04 04:43:05;;;;;;;47.63;28.67;;;9.40;99.90;;;;;;5051405;28;20502;-81
2024/03/04 04:45:32;;;;;;;45.03;27.03;;;9.50;99.90;;;;;;5052401;28;20536;-81
2024/03/04 04:47:58;;;;;;;48.40;30.07;;;9.50;99.90;;;;;;5049169;28;20437;-82
2024/03/04 04:50:26;;;;;;;53.77;29.57;;;9.30;99.90;;;;;;5049465;28;20465;-83
2024/03/04 04:52:53;;;;;;;41.90;27.40;;;9.30;99.90;;;;;;5050530;28;20531;-82
2024/03/04 04:55:20;;;;;;;47.50;28.93;;;9.30;99.90;;;;;;5052634;28;20564;-82
2024/03/04 04:57:48;;;;;;;39.50;25.63;;;9.30;99.90;;;;;;5048749;28;20458;-83
2024/03/04 05:00:18;;;;;;;42.73;26.23;;;9.30;99.90;;;;;;5048405;28;20478;-83
2024/03/04 05:02:45;;;;;;;48.20;26.03;;;9.20;99.90;;;;;;5044091;28;20454;-84
2024/03/04 05:05:14;;;;;;;44.83;27.50;;;9.20;99.90;;;;;;5053232;28;21018;-82
2024/03/04 05:07:41;;;;;;;43.50;27.57;;;9.10;99.90;;;;;;5045096;28;20457;-84
2024/03/04 05:10:09;;;;;;;44.00;27.90;;;9.20;99.90;;;;;;5046950;28;20463;-83
2024/03/04 05:12:36;;;;;;;47.60;27.57;;;9.20;99.90;;;;;;5050565;28;20453;-83
2024/03/04 05:15:07;;;;;;;47.10;28.27;;;9.20;99.90;;;;;;5050642;28;20475;-82
2024/03/04 05:17:34;;;;;;;52.73;33.83;;;9.20;99.90;;;;;;5052841;28;20505;-83
2024/03/04 05:20:01;;;;;;;47.07;29.97;;;9.20;99.90;;;;;;5053793;28;20455;-84
2024/03/04 05:22:27;;;;;;;48.50;29.53;;;9.30;99.90;;;;;;5045594;28;20463;-82
2024/03/04 05:24:56;;;;;;;47.93;28.10;;;9.20;99.90;;;;;;5055029;28;20491;-82
2024/03/04 05:27:26;;;;;;;44.20;27.47;;;9.20;99.90;;;;;;5054539;28;20513;-83
2024/03/04 05:29:53;;;;;;;43.33;25.63;;;9.20;99.90;;;;;;5053172;28;20505;-82
2024/03/04 05:32:24;;;;;;;41.30;25.47;;;9.30;99.90;;;;;;5054653;28;20456;-83
2024/03/04 05:34:51;;;;;;;38.67;24.70;;;9.20;99.90;;;;;;5055193;28;20460;-84
2024/03/04 05:37:17;;;;;;;45.27;26.03;;;9.20;99.90;;;;;;5054096;28;20456;-82
2024/03/04 05:39:46;;;;;;;45.13;27.17;;;9.20;99.90;;;;;;5055016;28;20980;-83
2024/03/04 05:42:13;;;;;;;45.90;26.13;;;9.20;99.90;;;;;;5054952;28;21057;-83
2024/03/04 05:44:41;;;;;;;40.67;25.53;;;9.30;99.90;;;;;;5056078;28;21028;-83
2024/03/04 05:47:08;;;;;;;42.20;25.53;;;9.30;99.90;;;;;;5054461;28;20455;-84
2024/03/04 05:49:37;;;;;;;43.00;25.87;;;9.20;99.90;;;;;;5055178;28;20462;-82
2024/03/04 05:52:04;;;;;;;45.67;27.23;;;9.20;99.90;;;;;;5055498;28;20566;-83
2024/03/04 05:54:32;;;;;;;42.33;27.20;;;9.30;99.90;;;;;;5055180;28;20475;-83
2024/03/04 05:56:59;;;;;;;40.80;24.80;;;9.30;99.90;;;;;;5054968;28;20502;-84
2024/03/04 05:59:25;;;;;;;36.00;22.80;;;9.40;99.90;;;;;;5058398;28;20484;-85
2024/03/04 06:01:53;;;;;;;46.30;27.00;;;9.40;99.90;;;;;;5061043;28;20458;-84
2024/03/04 06:04:24;;;;;;;44.33;26.07;;;9.20;99.90;;;;;;5063149;28;20504;-82
2024/03/04 06:06:52;;;;;;;39.63;26.83;;;9.10;99.90;;;;;;5057280;28;20538;-83
2024/03/04 06:09:19;;;;;;;46.43;25.83;;;9.00;99.90;;;;;;5046494;28;20462;-84
2024/03/04 06:11:46;;;;;;;48.13;25.70;;;9.00;99.90;;;;;;5053950;28;20466;-83
2024/03/04 06:14:12;;;;;;;41.87;25.00;;;9.10;99.90;;;;;;5054482;28;20475;-82
2024/03/04 06:16:39;;;;;;;50.70;28.17;;;8.90;99.90;;;;;;5053489;28;20470;-84
2024/03/04 06:19:06;;;;;;;46.73;25.70;;;9.00;99.90;;;;;;5052627;28;20471;-80
2024/03/04 06:21:35;;;;;;;44.77;26.13;;;9.00;99.90;;;;;;5045366;28;20457;-81
2024/03/04 06:24:03;;;;;;;40.83;23.80;;;9.00;99.90;;;;;;5051936;28;20523;-81
2024/03/04 06:26:30;;;;;;;54.20;28.10;;;9.10;99.90;;;;;;5050230;28;20544;-81
2024/03/04 06:28:57;;;;;;;49.60;28.50;;;9.00;99.90;;;;;;5049915;28;20463;-81
2024/03/04 06:31:26;;;;;;;42.27;24.23;;;9.00;99.90;;;;;;5051004;28;20490;-82
2024/03/04 06:33:53;;;;;;;42.47;24.40;;;9.10;99.90;;;;;;5047113;28;20532;-81
2024/03/04 06:36:20;;;;;;;40.00;25.60;;;9.10;99.90;;;;;;5048569;28;20446;-80
2024/03/04 06:38:47;;;;;;;44.83;26.77;;;9.20;99.90;;;;;;5047495;28;20470;-80
2024/03/04 06:41:15;;;;;;;40.70;25.67;;;9.30;99.90;;;;;;5048619;28;20464;-82
2024/03/04 06:43:43;;;;;;;46.53;26.07;;;9.30;99.90;;;;;;5047690;28;20551;-81
2024/03/04 06:46:10;;;;;;;41.10;25.23;;;9.20;99.90;;;;;;5052517;28;20456;-81
2024/03/04 06:48:38;;;;;;;40.67;25.37;;;9.30;99.90;;;;;;5054096;28;20837;-81
2024/03/04 06:51:05;;;;;;;43.50;24.37;;;9.30;99.90;;;;;;5054060;28;20486;-82
2024/03/04 06:53:31;;;;;;;42.53;26.87;;;9.30;99.90;;;;;;5048563;28;20468;-80
2024/03/04 06:55:59;;;;;;;43.80;24.47;;;9.30;99.90;;;;;;5053481;28;20459;-82
2024/03/04 06:58:27;;;;;;;49.40;28.63;;;9.30;99.90;;;;;;5053181;28;20455;-81
2024/03/04 07:00:54;;;;;;;44.07;25.40;;;9.20;99.90;;;;;;5045456;28;20467;-78
2024/03/04 07:03:21;;;;;;;46.53;25.27;;;9.30;99.90;;;;;;5049049;28;20461;-81
2024/03/04 07:05:48;;;;;;;47.20;27.13;;;9.30;99.90;;;;;;5052825;28;20498;-81
2024/03/04 07:08:15;;;;;;;55.23;26.23;;;9.30;99.90;;;;;;5053774;28;20535;-81
2024/03/04 07:10:42;;;;;;;40.37;26.37;;;9.40;99.90;;;;;;5053074;28;20462;-79
2024/03/04 07:13:09;;;;;;;54.60;28.40;;;9.40;99.90;;;;;;5047274;28;20453;-80
2024/03/04 07:15:37;;;;;;;43.83;26.43;;;9.30;99.90;;;;;;5053429;28;20532;-81
2024/03/04 07:18:04;;;;;;;44.40;26.43;;;9.50;99.90;;;;;;5053209;28;20449;-81
2024/03/04 07:20:31;;;;;;;45.03;26.20;;;9.50;99.90;;;;;;5048333;28;20533;-81
2024/03/04 07:22:58;;;;;;;48.20;27.93;;;9.50;99.90;;;;;;5053556;28;20827;-81
2024/03/04 07:25:25;;;;;;;43.80;26.80;;;9.50;99.90;;;;;;5052983;28;20599;-81
2024/03/04 07:27:51;;;;;;;44.50;25.90;;;9.50;99.90;;;;;;5059523;28;20519;-81
2024/03/04 07:30:18;;;;;;;48.70;25.57;;;9.50;99.90;;;;;;5061009;28;20463;-80
2024/03/04 07:32:47;;;;;;;43.80;24.70;;;9.60;99.90;;;;;;5058488;28;20907;-82
2024/03/04 07:35:13;;;;;;;42.77;26.70;;;9.60;99.90;;;;;;5053357;28;20457;-81
2024/03/04 07:37:40;;;;;;;41.67;24.90;;;9.50;99.90;;;;;;5053201;28;20463;-81
2024/03/04 07:40:10;;;;;;;47.53;23.60;;;9.50;99.90;;;;;;5053027;28;20515;-81
2024/03/04 07:42:36;;;;;;;45.53;25.40;;;9.60;99.90;;;;;;5052267;28;20463;-82
2024/03/04 07:45:06;;;;;;;46.40;27.80;;;9.50;99.90;;;;;;5046473;28;20497;-81
2024/03/04 07:47:32;;;;;;;48.70;28.77;;;9.50;99.90;;;;;;5052883;28;20823;-81
2024/03/04 07:50:04;;;;;;;44.40;26.20;;;9.40;99.90;;;;;;5053314;28;20452;-81
2024/03/04 07:52:30;;;;;;;45.10;27.47;;;9.40;99.90;;;;;;5052796;28;20452;-81
2024/03/04 07:54:57;;;;;;;38.60;24.13;;;9.50;99.90;;;;;;5053622;28;20474;-81
2024/03/04 07:57:24;;;;;;;33.30;21.33;;;9.50;99.90;;;;;;5049226;28;20468;-81
2024/03/04 07:59:51;;;;;;;37.50;22.53;;;9.50;99.90;;;;;;5052983;28;20486;-82
2024/03/04 08:02:17;;;;;;;33.90;21.27;;;9.60;99.90;;;;;;5052818;28;20457;-81
2024/03/04 08:04:48;;;;;;;36.47;21.73;;;9.70;99.90;;;;;;5051099;28;20493;-81
2024/03/04 08:07:19;;;;;;;34.63;19.53;;;9.70;99.90;;;;;;5052437;28;20464;-81
2024/03/04 08:09:45;;;;;;;33.80;18.67;;;9.80;99.90;;;;;;5042470;28;20446;-81
2024/03/04 08:12:13;;;;;;;30.00;18.07;;;9.90;99.90;;;;;;5047303;28;20469;-81
2024/03/04 08:14:40;;;;;;;26.93;17.27;;;9.80;99.90;;;;;;5044184;28;20551;-81
2024/03/04 08:17:08;;;;;;;27.87;16.00;;;9.80;99.90;;;;;;5052213;28;20461;-80
2024/03/04 08:19:34;;;;;;;26.87;15.83;;;9.80;99.90;;;;;;5052238;28;20462;-80
2024/03/04 08:22:05;;;;;;;25.20;16.23;;;10.00;99.90;;;;;;5052419;28;20456;-80
2024/03/04 08:24:33;;;;;;;22.23;13.90;;;9.90;99.90;;;;;;5043973;28;20494;-81
2024/03/04 08:27:00;;;;;;;22.30;14.10;;;10.00;99.90;;;;;;5045991;28;20476;-81
2024/03/04 08:29:27;;;;;;;21.17;15.80;;;10.00;99.90;;;;;;5050375;28;20941;-82
2024/03/04 08:31:56;;;;;;;23.50;14.77;;;10.00;99.90;;;;;;5052745;28;20437;-82
2024/03/04 08:34:23;;;;;;;20.10;14.40;;;10.10;99.90;;;;;;5052738;28;20468;-81
2024/03/04 08:36:49;;;;;;;24.40;14.07;;;10.10;99.90;;;;;;5051287;28;20462;-81
2024/03/04 08:39:16;;;;;;;19.43;12.57;;;10.10;99.90;;;;;;5052491;28;20553;-81
2024/03/04 08:41:48;;;;;;;19.50;11.73;;;10.30;99.90;;;;;;5052293;28;20467;-80
2024/03/04 08:44:15;;;;;;;27.03;15.70;;;10.30;99.90;;;;;;5052426;28;20477;-81
2024/03/04 08:46:43;;;;;;;20.93;14.83;;;10.20;99.90;;;;;;5052175;28;20525;-80
2024/03/04 08:49:10;;;;;;;22.97;14.87;;;10.20;99.90;;;;;;5053190;28;20468;-80
2024/03/04 08:51:38;;;;;;;21.70;14.47;;;10.30;99.90;;;;;;5053621;28;20976;-81
2024/03/04 08:54:05;;;;;;;22.83;14.20;;;10.30;99.90;;;;;;5056982;28;20510;-81
2024/03/04 08:56:32;;;;;;;26.03;13.70;;;10.30;99.90;;;;;;5048931;28;20916;-81
2024/03/04 08:59:00;;;;;;;24.23;16.10;;;10.20;99.90;;;;;;5056574;28;20480;-80
2024/03/04 09:01:31;;;;;;;25.90;17.40;;;10.20;99.90;;;;;;5048105;28;20458;-81
2024/03/04 09:03:57;;;;;;;26.27;17.93;;;10.30;99.90;;;;;;5056938;28;20489;-80
2024/03/04 09:06:25;;;;;;;29.03;16.63;;;10.20;99.90;;;;;;5056203;28;20498;-80
2024/03/04 09:08:52;;;;;;;26.53;16.73;;;10.10;99.90;;;;;;5048747;28;20870;-81
2024/03/04 09:11:19;;;;;;;25.77;17.80;;;10.00;99.90;;;;;;5059368;28;20549;-81
2024/03/04 09:13:46;;;;;;;27.63;17.20;;;10.10;99.90;;;;;;5056358;28;20502;-80
2024/03/04 09:16:15;;;;;;;28.17;18.87;;;10.10;99.90;;;;;;5055824;28;20453;-80
2024/03/04 09:18:42;;;;;;;31.70;19.40;;;10.10;99.90;;;;;;5056555;28;20945;-80
2024/03/04 09:21:09;;;;;;;30.57;19.20;;;10.00;99.90;;;;;;5056915;28;20467;-79
2024/03/04 09:23:39;;;;;;;32.87;20.60;;;9.90;99.90;;;;;;5056190;28;20471;-80
2024/03/04 09:26:08;;;;;;;31.30;20.20;;;10.00;99.90;;;;;;5056346;28;20582;-81
2024/03/04 09:28:35;;;;;;;38.43;22.13;;;10.00;99.90;;;;;;5057774;28;21210;-80
2024/03/04 09:31:08;;;;;;;32.80;20.97;;;10.00;99.90;;;;;;5056661;28;20452;-80
2024/03/04 09:33:36;;;;;;;42.33;25.60;;;10.10;99.90;;;;;;5056882;28;20489;-81
2024/03/04 09:36:03;;;;;;;42.90;27.40;;;9.90;99.90;;;;;;5056385;28;20445;-79
2024/03/04 09:38:30;;;;;;;43.33;27.33;;;9.90;99.90;;;;;;5056345;28;20522;-80
2024/03/04 09:40:59;;;;;;;44.33;27.17;;;9.80;99.90;;;;;;5052288;28;20605;-80
2024/03/04 09:43:29;;;;;;;49.43;27.20;;;9.80;99.90;;;;;;5044965;28;20460;-80
2024/03/04 09:45:58;;;;;;;49.43;31.73;;;9.90;99.90;;;;;;5048571;28;20484;-79
2024/03/04 09:48:26;;;;;;;43.97;29.63;;;9.80;99.90;;;;;;5056724;28;20498;-80
2024/03/04 09:50:56;;;;;;;40.73;27.07;;;9.90;99.90;;;;;;5047372;28;20470;-79
2024/03/04 09:53:25;;;;;;;37.10;24.50;;;10.00;99.90;;;;;;5056543;28;20453;-81
2024/03/04 09:55:51;;;;;;;39.27;25.30;;;10.10;99.90;;;;;;5045042;28;20476;-80
2024/03/04 09:58:18;;;;;;;36.80;23.97;;;10.00;99.90;;;;;;5052549;28;20460;-81
2024/03/04 10:00:46;;;;;;;41.83;27.37;;;10.20;99.90;;;;;;5059044;28;20567;-81
2024/03/04 10:03:12;;;;;;;39.93;23.87;;;10.20;99.90;;;;;;5059261;28;20541;-81
2024/03/04 10:05:42;;;;;;;46.87;27.77;;;10.30;99.90;;;;;;5058896;28;20494;-81
2024/03/04 10:08:10;;;;;;;38.50;24.13;;;10.10;99.90;;;;;;5052623;28;20470;-82
2024/03/04 10:10:37;;;;;;;41.40;24.77;;;10.20;99.90;;;;;;5057333;28;20448;-82
2024/03/04 10:13:09;;;;;;;41.00;26.07;;;10.30;99.90;;;;;;5059029;28;20457;-82
2024/03/04 10:15:35;;;;;;;43.10;27.03;;;10.30;99.90;;;;;;5060436;28;20480;-81
2024/03/04 10:18:10;;;;;;;40.10;26.47;;;10.30;99.90;;;;;;5055710;28;20509;-80
2024/03/04 10:20:38;;;;;;;36.77;22.07;;;10.40;99.90;;;;;;5055596;28;20452;-80
2024/03/04 10:23:05;;;;;;;36.07;22.20;;;10.20;99.90;;;;;;5055537;28;20448;-80
2024/03/04 10:25:34;;;;;;;36.87;23.70;;;10.20;99.90;;;;;;5054875;28;21464;-80
2024/03/04 10:28:01;;;;;;;41.30;24.53;;;10.20;99.90;;;;;;5055440;28;20460;-81
2024/03/04 10:30:28;;;;;;;37.37;22.13;;;10.10;99.90;;;;;;5055056;28;20481;-80
2024/03/04 10:32:56;;;;;;;40.83;23.87;;;10.00;99.90;;;;;;5047040;28;20460;-80
2024/03/04 10:35:25;;;;;;;33.77;21.43;;;10.10;99.90;;;;;;5055876;28;20471;-78
2024/03/04 10:37:53;;;;;;;42.80;24.17;;;10.10;99.90;;;;;;5046160;28;20449;-82
2024/03/04 10:40:21;;;;;;;38.93;22.90;;;10.10;99.90;;;;;;5057394;28;20454;-80
2024/03/04 10:42:49;;;;;;;41.40;23.97;;;10.20;99.90;;;;;;5055813;28;20455;-81
2024/03/04 10:45:16;;;;;;;36.17;21.73;;;10.00;99.90;;;;;;5055654;28;20494;-80
2024/03/04 10:47:44;;;;;;;31.40;22.40;;;10.10;99.90;;;;;;5055618;28;20960;-79
2024/03/04 10:50:11;;;;;;;34.97;22.30;;;10.00;99.90;;;;;;5056072;28;20460;-80
2024/03/04 10:52:38;;;;;;;36.17;22.50;;;10.00;99.90;;;;;;5055116;28;20464;-82
2024/03/04 10:55:06;;;;;;;30.17;20.87;;;10.00;99.90;;;;;;5055647;28;20567;-80
2024/03/04 10:57:34;;;;;;;41.50;30.83;;;9.90;99.90;;;;;;5054960;28;20459;-82
2024/03/04 11:00:10;;;;;;;32.07;20.60;;;10.00;99.90;;;;;;5055270;28;20530;-80
2024/03/04 11:02:47;;;;;;;28.00;19.67;;;10.10;99.90;;;;;;5055266;28;20467;-81
2024/03/04 11:05:16;;;;;;;28.47;20.03;;;10.00;99.90;;;;;;5055406;28;20503;-80
2024/03/04 11:07:44;;;;;;;28.67;20.03;;;10.00;99.90;;;;;;5055890;28;20467;-81
2024/03/04 11:10:26;;;;;;;26.93;18.53;;;10.00;99.90;;;;;;5056469;28;21227;-81
2024/03/04 11:13:02;;;;;;;28.93;18.57;;;10.10;99.90;;;;;;5055868;28;20461;-81
2024/03/04 11:15:35;;;;;;;32.63;19.77;;;10.10;99.90;;;;;;5055809;28;20548;-80
2024/03/04 11:18:08;;;;;;;26.87;19.20;;;10.00;99.90;;;;;;5056440;28;20535;-80
2024/03/04 11:20:41;;;;;;;27.87;20.30;;;10.10;99.90;;;;;;5055470;28;20462;-81
2024/03/04 11:23:09;;;;;;;31.90;20.43;;;10.00;99.90;;;;;;5050646;28;20468;-81
2024/03/04 11:25:38;;;;;;;30.97;19.13;;;10.10;99.90;;;;;;5056249;28;21026;-81
2024/03/04 11:28:07;;;;;;;30.50;20.40;;;10.00;99.90;;;;;;5056329;28;20460;-80
2024/03/04 11:30:37;;;;;;;32.77;22.83;;;10.10;99.90;;;;;;5056440;28;20469;-80
2024/03/04 11:33:38;;;;;;;36.67;23.83;;;10.10;99.90;;;;;;5048334;28;20658;-81
2024/03/04 11:36:05;;;;;;;30.20;21.67;;;10.10;99.90;;;;;;5049403;28;20443;-80
2024/03/04 11:38:40;;;;;;;32.80;21.97;;;10.00;99.90;;;;;;5056430;28;20527;-81
2024/03/04 11:41:07;;;;;;;32.47;21.33;;;10.00;99.90;;;;;;5056358;28;20462;-80
2024/03/04 11:43:47;;;;;;;27.87;18.20;;;10.00;99.90;;;;;;5047312;28;20995;-82
2024/03/04 11:46:18;;;;;;;25.87;18.53;;;10.10;99.90;;;;;;5050737;28;20522;-80
2024/03/04 11:48:46;;;;;;;35.50;18.37;;;10.10;99.90;;;;;;5055975;28;20456;-80
2024/03/04 11:51:13;;;;;;;29.47;17.03;;;10.10;99.90;;;;;;5056272;28;20949;-81
2024/03/04 11:53:44;;;;;;;27.20;16.57;;;9.80;99.90;;;;;;5055366;28;21008;-82
2024/03/04 11:56:13;;;;;;;35.97;20.07;;;10.00;99.90;;;;;;5054958;28;20457;-80
2024/03/04 11:58:39;;;;;;;38.83;21.67;;;10.10;99.90;;;;;;5048420;28;20899;-81
2024/03/04 12:01:11;;;;;;;41.60;22.40;;;10.00;99.90;;;;;;5065189;28;20962;-79
2024/03/04 12:03:52;;;;;;;38.33;20.63;;;10.00;99.90;;;;;;5058516;28;20490;-80
2024/03/04 12:06:19;;;;;;;35.43;20.90;;;10.10;99.90;;;;;;5063133;28;20488;-81
2024/03/04 12:08:46;;;;;;;36.73;21.00;;;10.20;99.90;;;;;;5059251;28;20542;-82
2024/03/04 12:11:15;;;;;;;34.57;19.60;;;10.10;99.90;;;;;;5056996;28;20561;-82
2024/03/04 12:13:42;;;;;;;34.20;19.53;;;10.10;99.90;;;;;;5057249;28;20476;-80
2024/03/04 12:16:09;;;;;;;28.07;15.73;;;10.10;99.90;;;;;;5057299;28;20452;-82
2024/03/04 12:18:36;;;;;;;26.53;17.30;;;10.10;99.90;;;;;;5057991;28;20456;-82
2024/03/04 12:21:07;;;;;;;27.50;18.90;;;10.00;99.90;;;;;;5057249;28;20456;-82
2024/03/04 12:23:35;;;;;;;35.40;20.30;;;10.00;99.90;;;;;;5057650;28;20481;-82
2024/03/04 12:26:13;;;;;;;30.93;21.37;;;10.10;99.90;;;;;;5055270;28;20491;-81
2024/03/04 12:28:40;;;;;;;34.57;21.70;;;10.20;99.90;;;;;;5057673;28;20448;-82
2024/03/04 12:31:10;;;;;;;29.57;20.43;;;10.20;99.90;;;;;;5054315;28;20450;-80
2024/03/04 12:33:37;;;;;;;33.87;20.57;;;10.10;99.90;;;;;;5057304;28;20908;-80
2024/03/04 12:36:06;;;;;;;26.70;19.33;;;10.00;99.90;;;;;;5055638;28;20452;-80
2024/03/04 12:38:34;;;;;;;30.57;19.70;;;10.20;99.90;;;;;;5056969;28;20517;-81